createdAt,value
2024-01-04T00:01:17.478Z,2.57
2024-01-04T00:03:47.385Z,3.00
2024-01-04T00:06:19.041Z,2.90
2024-01-04T00:08:47.493Z,2.90
2024-01-04T00:11:15.880Z,2.93
2024-01-04T00:13:43.780Z,2.63
2024-01-04T00:16:12.324Z,3.80
2024-01-04T00:18:40.891Z,3.13
2024-01-04T00:21:13.665Z,2.70
2024-01-04T00:23:41.743Z,3.80
2024-01-04T00:26:09.860Z,3.33
2024-01-04T00:28:38.399Z,3.10
2024-01-04T00:31:06.937Z,2.93
2024-01-04T00:33:35.024Z,3.13
2024-01-04T00:36:03.083Z,3.07
2024-01-04T00:38:32.446Z,3.20
2024-01-04T00:41:00.461Z,3.13
2024-01-04T00:43:28.465Z,3.30
2024-01-04T00:45:56.398Z,3.23
2024-01-04T00:48:24.454Z,3.00
2024-01-04T00:50:52.555Z,3.07
2024-01-04T00:53:20.576Z,3.70
2024-01-04T00:55:49.895Z,3.80
2024-01-04T00:58:17.891Z,3.10
2024-01-04T01:00:45.822Z,2.90
2024-01-04T01:03:14.222Z,3.13
2024-01-04T01:05:42.408Z,2.40
2024-01-04T01:08:11.203Z,2.20
2024-01-04T01:10:39.200Z,2.60
2024-01-04T01:13:08.584Z,3.20
2024-01-04T01:15:36.573Z,2.10
2024-01-04T01:18:04.843Z,1.80
2024-01-04T01:20:32.917Z,2.23
2024-01-04T01:23:00.870Z,2.50
2024-01-04T01:25:28.804Z,3.40
2024-01-04T01:27:56.767Z,3.10
2024-01-04T01:30:26.119Z,4.00
2024-01-04T01:32:54.296Z,3.67
2024-01-04T01:35:22.910Z,3.40
2024-01-04T01:37:50.920Z,3.30
2024-01-04T01:40:18.961Z,3.50
2024-01-04T01:42:49.096Z,3.17
2024-01-04T01:45:17.632Z,3.00
2024-01-04T01:47:48.785Z,2.23
2024-01-04T01:50:19.807Z,2.77
2024-01-04T01:52:48.784Z,2.70
2024-01-04T01:55:18.091Z,2.70
2024-01-04T01:57:46.388Z,3.10
2024-01-04T02:00:16.618Z,3.43
2024-01-04T02:02:49.992Z,3.00
2024-01-04T02:05:18.493Z,2.47
2024-01-04T02:07:46.910Z,3.03
2024-01-04T02:10:15.008Z,2.70
2024-01-04T02:12:43.679Z,2.77
2024-01-04T02:15:12.048Z,3.03
2024-01-04T02:17:40.760Z,3.00
2024-01-04T02:20:10.963Z,3.13
2024-01-04T02:22:43.549Z,2.90
2024-01-04T02:25:11.484Z,3.10
2024-01-04T02:27:39.453Z,2.37
2024-01-04T02:30:08.668Z,2.33
2024-01-04T02:32:36.878Z,3.07
2024-01-04T02:35:05.374Z,2.60
2024-01-04T02:37:33.941Z,2.27
2024-01-04T02:40:04.339Z,2.30
2024-01-04T02:42:33.259Z,1.90
2024-01-04T02:45:01.392Z,2.50
2024-01-04T02:47:29.390Z,1.97
2024-01-04T02:49:57.467Z,1.60
2024-01-04T02:52:25.378Z,1.67
2024-01-04T02:54:54.030Z,1.67
2024-01-04T02:57:23.586Z,1.43
2024-01-04T02:59:51.605Z,1.37
2024-01-04T03:02:19.534Z,1.30
2024-01-04T03:04:47.525Z,1.27
2024-01-04T03:07:15.529Z,2.10
2024-01-04T03:09:43.480Z,1.57
2024-01-04T03:12:11.448Z,1.00
2024-01-04T03:14:40.803Z,1.40
2024-01-04T03:17:08.791Z,0.97
2024-01-04T03:19:37.052Z,0.97
2024-01-04T03:22:05.453Z,0.87
2024-01-04T03:24:33.993Z,1.00
2024-01-04T03:27:01.978Z,1.50
2024-01-04T03:29:29.972Z,1.07
2024-01-04T03:31:59.312Z,0.83
2024-01-04T03:34:29.915Z,1.00
2024-01-04T03:36:57.957Z,0.70
2024-01-04T03:39:25.905Z,0.50
2024-01-04T03:41:53.921Z,0.90
2024-01-04T03:44:21.948Z,0.73
2024-01-04T03:46:49.922Z,0.60
2024-01-04T03:49:19.338Z,0.80
2024-01-04T03:51:47.432Z,0.57
2024-01-04T03:54:15.492Z,0.80
2024-01-04T03:56:43.593Z,0.60
2024-01-04T03:59:11.586Z,1.10
2024-01-04T04:01:45.099Z,0.70
2024-01-04T04:04:13.559Z,0.73
2024-01-04T04:06:43.282Z,0.73
2024-01-04T04:09:11.405Z,0.60
2024-01-04T04:11:39.413Z,0.70
2024-01-04T04:14:08.464Z,0.67
2024-01-04T04:16:41.685Z,0.57
2024-01-04T04:19:10.351Z,0.80
2024-01-04T04:21:38.455Z,0.70
2024-01-04T04:24:08.237Z,0.60
2024-01-04T04:26:37.027Z,0.70
2024-01-04T04:29:05.043Z,0.60
2024-01-04T04:31:32.926Z,1.00
2024-01-04T04:34:00.933Z,0.70
2024-01-04T04:36:29.111Z,0.40
2024-01-04T04:38:59.205Z,0.73
2024-01-04T04:41:28.676Z,0.87
2024-01-04T04:43:56.645Z,1.13
2024-01-04T04:46:24.567Z,0.80
2024-01-04T04:48:56.317Z,0.60
2024-01-04T04:51:24.789Z,0.60
2024-01-04T04:53:53.028Z,0.60
2024-01-04T04:56:21.041Z,0.50
2024-01-04T04:58:50.304Z,0.80
2024-01-04T05:01:18.264Z,0.40
2024-01-04T05:03:49.319Z,0.30
2024-01-04T05:06:18.248Z,0.50
2024-01-04T05:08:46.746Z,0.70
2024-01-04T05:11:14.700Z,0.80
2024-01-04T05:13:42.633Z,0.70
2024-01-04T05:16:13.277Z,0.60
2024-01-04T05:18:41.316Z,0.60
2024-01-04T05:21:09.475Z,0.67
2024-01-04T05:23:37.413Z,0.70
2024-01-04T05:26:05.516Z,0.60
2024-01-04T05:28:33.433Z,0.37
2024-01-04T05:31:01.723Z,1.67
2024-01-04T05:33:31.300Z,0.50
2024-01-04T05:35:59.345Z,0.70
2024-01-04T05:38:27.328Z,0.53
2024-01-04T05:40:55.306Z,0.43
2024-01-04T05:43:23.244Z,0.70
2024-01-04T05:45:51.147Z,0.73
2024-01-04T05:48:19.217Z,0.40
2024-01-04T05:50:50.904Z,0.40
2024-01-04T05:53:19.387Z,0.50
2024-01-04T05:55:47.506Z,0.80
2024-01-04T05:58:15.509Z,0.70
2024-01-04T06:00:43.543Z,0.67
2024-01-04T06:03:11.528Z,1.13
2024-01-04T06:05:39.593Z,0.50
2024-01-04T06:08:09.261Z,0.60
2024-01-04T06:10:37.190Z,0.57
2024-01-04T06:13:05.982Z,0.70
2024-01-04T06:15:33.917Z,0.83
2024-01-04T06:18:01.958Z,1.20
2024-01-04T06:20:29.939Z,0.60
2024-01-04T06:22:57.875Z,0.70
2024-01-04T06:25:28.331Z,0.60
2024-01-04T06:27:56.463Z,0.80
2024-01-04T06:30:26.096Z,0.50
2024-01-04T06:32:54.695Z,0.40
2024-01-04T06:35:22.726Z,0.70
2024-01-04T06:37:50.708Z,0.60
2024-01-04T06:40:18.992Z,0.73
2024-01-04T06:42:54.543Z,0.60
2024-01-04T06:45:22.623Z,0.93
2024-01-04T06:47:50.865Z,0.60
2024-01-04T06:50:19.994Z,0.70
2024-01-04T06:52:48.259Z,0.77
2024-01-04T06:55:16.824Z,0.70
2024-01-04T06:57:44.767Z,0.80
2024-01-04T07:00:16.452Z,0.70
2024-01-04T07:02:44.542Z,0.90
2024-01-04T07:05:12.933Z,0.80
2024-01-04T07:07:41.039Z,0.60
2024-01-04T07:10:10.794Z,1.10
2024-01-04T07:12:39.148Z,0.50
2024-01-04T07:15:07.761Z,0.50
2024-01-04T07:17:37.212Z,1.43
2024-01-04T07:20:05.922Z,0.80
2024-01-04T07:22:33.951Z,0.67
2024-01-04T07:25:02.628Z,0.83
2024-01-04T07:27:31.068Z,0.87
2024-01-04T07:30:00.422Z,1.00
2024-01-04T07:32:28.882Z,0.73
2024-01-04T07:35:07.765Z,1.00
2024-01-04T07:37:43.208Z,0.90
2024-01-04T07:40:12.829Z,0.70
2024-01-04T07:42:41.068Z,0.83
2024-01-04T07:45:10.273Z,1.60
2024-01-04T07:47:38.981Z,0.70
2024-01-04T07:50:09.806Z,0.80
2024-01-04T07:52:37.997Z,0.73
2024-01-04T07:55:07.788Z,0.70
2024-01-04T07:57:36.197Z,1.00
2024-01-04T08:00:05.176Z,0.87
2024-01-04T08:02:40.799Z,0.87
2024-01-04T08:05:11.998Z,0.70
2024-01-04T08:07:39.957Z,0.80
2024-01-04T08:10:10.808Z,1.00
2024-01-04T08:12:41.245Z,0.73
2024-01-04T08:15:10.149Z,0.90
2024-01-04T08:17:38.302Z,0.80
2024-01-04T08:20:07.331Z,1.00
2024-01-04T08:22:38.829Z,0.70
2024-01-04T08:25:07.779Z,0.73
2024-01-04T08:27:35.852Z,0.70
2024-01-04T08:30:04.046Z,0.80
2024-01-04T08:32:32.249Z,0.80
2024-01-04T08:35:00.312Z,0.70
2024-01-04T08:37:28.266Z,0.80
2024-01-04T08:39:57.542Z,0.70
2024-01-04T08:42:25.777Z,0.90
2024-01-04T08:44:53.836Z,1.00
2024-01-04T08:47:21.969Z,0.73
2024-01-04T08:49:50.113Z,1.00
2024-01-04T08:52:18.804Z,1.37
2024-01-04T08:54:46.951Z,1.43
2024-01-04T08:57:18.479Z,1.53
2024-01-04T08:59:46.598Z,1.30
2024-01-04T09:02:14.540Z,0.97
2024-01-04T09:04:42.601Z,1.37
2024-01-04T09:07:10.900Z,1.87
2024-01-04T09:09:38.928Z,1.53
2024-01-04T09:12:07.202Z,1.77
2024-01-04T09:14:36.895Z,2.23
2024-01-04T09:17:05.303Z,1.30
2024-01-04T09:19:33.634Z,1.40
2024-01-04T09:22:01.770Z,1.13
2024-01-04T09:24:30.068Z,1.40
2024-01-04T09:26:58.644Z,1.63
2024-01-04T09:29:26.938Z,1.67
2024-01-04T09:31:56.770Z,1.03
2024-01-04T09:34:25.371Z,1.00
2024-01-04T09:36:55.368Z,1.20
2024-01-04T09:39:23.371Z,1.40
2024-01-04T09:41:52.210Z,1.30
2024-01-04T09:44:20.707Z,1.37
2024-01-04T09:46:51.070Z,1.10
2024-01-04T09:49:23.814Z,1.33
2024-01-04T09:51:53.227Z,1.50
2024-01-04T09:54:22.201Z,1.37
2024-01-04T09:56:52.482Z,1.20
2024-01-04T09:59:20.567Z,0.90
2024-01-04T10:01:50.380Z,1.43
2024-01-04T10:04:20.148Z,1.33
2024-01-04T10:06:50.795Z,1.10
2024-01-04T10:09:26.636Z,0.90
2024-01-04T10:12:03.829Z,0.80
2024-01-04T10:14:33.332Z,1.20
2024-01-04T10:17:02.104Z,1.20
2024-01-04T10:19:33.744Z,1.00
2024-01-04T10:22:03.575Z,0.70
2024-01-04T10:24:33.715Z,1.10
2024-01-04T10:27:02.746Z,1.20
2024-01-04T10:29:31.596Z,1.43
2024-01-04T10:32:00.283Z,1.20
2024-01-04T10:34:29.019Z,0.87
2024-01-04T10:37:10.348Z,1.00
2024-01-04T10:39:38.577Z,1.40
2024-01-04T10:42:08.568Z,1.10
2024-01-04T10:44:36.884Z,1.20
2024-01-04T10:47:10.107Z,1.10
2024-01-04T10:49:40.449Z,1.20
2024-01-04T10:52:15.545Z,1.10
2024-01-04T10:54:46.851Z,0.80
2024-01-04T10:57:15.549Z,0.80
2024-01-04T10:59:45.894Z,0.70
2024-01-04T11:02:15.889Z,1.10
2024-01-04T11:04:45.011Z,0.90
2024-01-04T11:07:16.510Z,1.10
2024-01-04T11:09:45.341Z,1.00
2024-01-04T11:12:15.520Z,1.77
2024-01-04T11:14:43.913Z,0.80
2024-01-04T11:17:31.583Z,0.93
2024-01-04T11:20:23.064Z,0.67
2024-01-04T11:23:11.761Z,1.00
2024-01-04T11:25:58.282Z,1.00
2024-01-04T11:28:37.327Z,1.20
2024-01-04T11:31:09.321Z,1.10
2024-01-04T11:33:43.264Z,1.10
2024-01-04T11:36:18.332Z,0.90
2024-01-04T11:38:50.053Z,0.80
2024-01-04T11:41:19.457Z,1.50
2024-01-04T11:43:49.906Z,0.83
2024-01-04T11:46:23.722Z,1.03
2024-01-04T11:48:57.462Z,1.27
2024-01-04T11:51:37.459Z,0.70
2024-01-04T11:54:09.840Z,1.07
2024-01-04T11:56:39.977Z,1.10
2024-01-04T11:59:13.338Z,1.03
2024-01-04T12:01:43.417Z,0.80
2024-01-04T12:04:13.625Z,1.20
2024-01-04T12:06:43.678Z,0.87
2024-01-04T12:09:17.221Z,0.90
2024-01-04T12:11:55.428Z,0.97
2024-01-04T12:14:24.543Z,0.87
2024-01-04T12:16:52.579Z,1.13
2024-01-04T12:19:20.841Z,0.93
2024-01-04T12:21:49.164Z,0.90
2024-01-04T12:24:18.994Z,1.60
2024-01-04T12:26:47.835Z,2.30
2024-01-04T12:29:16.143Z,1.80
2024-01-04T12:31:45.364Z,1.50
2024-01-04T12:34:14.066Z,1.50
2024-01-04T12:36:42.975Z,1.07
2024-01-04T12:39:13.190Z,1.33
2024-01-04T12:41:45.960Z,1.30
2024-01-04T12:44:15.889Z,1.67
2024-01-04T12:46:44.784Z,1.17
2024-01-04T12:49:17.569Z,1.47
2024-01-04T12:51:48.270Z,1.33
2024-01-04T12:54:16.605Z,1.20
2024-01-04T12:56:46.285Z,0.90
2024-01-04T12:59:16.375Z,1.48
2024-01-04T13:01:44.387Z,1.30
2024-01-04T13:04:15.160Z,1.27
2024-01-04T13:06:43.710Z,1.23
2024-01-04T13:09:16.244Z,1.20
2024-01-04T13:11:45.783Z,1.23
2024-01-04T13:14:13.848Z,1.00
2024-01-04T13:16:42.286Z,0.90
2024-01-04T13:19:13.211Z,1.03
2024-01-04T13:21:41.307Z,0.80
2024-01-04T13:24:12.152Z,1.10
2024-01-04T13:26:43.907Z,0.70
2024-01-04T13:29:15.993Z,1.20
2024-01-04T13:31:44.077Z,1.00
2024-01-04T13:34:13.160Z,1.37
2024-01-04T13:36:41.408Z,1.10
2024-01-04T13:39:11.569Z,1.13
2024-01-04T13:41:41.407Z,1.30
2024-01-04T13:44:09.372Z,0.70
2024-01-04T13:46:38.714Z,0.70
2024-01-04T13:49:08.085Z,0.90
2024-01-04T13:51:36.323Z,1.00
2024-01-04T13:54:04.549Z,2.60
2024-01-04T13:56:32.607Z,1.10
2024-01-04T13:59:00.590Z,1.10
2024-01-04T14:01:28.578Z,0.67
2024-01-04T14:03:58.141Z,0.93
2024-01-04T14:06:26.413Z,0.80
2024-01-04T14:08:55.017Z,0.83
2024-01-04T14:11:23.174Z,1.13
2024-01-04T14:13:52.094Z,0.83
2024-01-04T14:16:20.082Z,1.03
2024-01-04T14:18:48.062Z,1.60
2024-01-04T14:21:18.433Z,1.10
2024-01-04T14:23:46.605Z,1.20
2024-01-04T14:26:16.476Z,1.07
2024-01-04T14:28:44.499Z,1.00
2024-01-04T14:31:12.464Z,1.30
2024-01-04T14:33:40.487Z,1.17
2024-01-04T14:36:10.534Z,1.53
2024-01-04T14:38:40.129Z,1.47
2024-01-04T14:41:09.222Z,1.50
2024-01-04T14:43:37.305Z,1.40
2024-01-04T14:46:06.315Z,1.07
2024-01-04T14:48:34.677Z,0.90
2024-01-04T14:51:03.526Z,1.23
2024-01-04T14:53:31.728Z,1.50
2024-01-04T14:56:01.278Z,1.23
2024-01-04T14:58:29.604Z,1.20
2024-01-04T15:00:57.701Z,1.00
2024-01-04T15:03:25.803Z,1.00
2024-01-04T15:05:54.955Z,1.00
2024-01-04T15:08:23.429Z,1.17
2024-01-04T15:10:51.808Z,1.50
2024-01-04T15:13:21.994Z,3.13
2024-01-04T15:15:53.116Z,2.70
2024-01-04T15:18:21.336Z,2.30
2024-01-04T15:20:49.433Z,2.53
2024-01-04T15:23:17.522Z,2.70
2024-01-04T15:25:46.117Z,1.93
2024-01-04T15:28:14.068Z,2.07
2024-01-04T15:30:43.619Z,1.40
2024-01-04T15:33:12.063Z,1.73
2024-01-04T15:35:40.190Z,1.63
2024-01-04T15:38:08.133Z,1.57
2024-01-04T15:40:36.091Z,1.60
2024-01-04T15:43:05.008Z,1.40
2024-01-04T15:45:33.105Z,1.90
2024-01-04T15:48:02.952Z,2.20
2024-01-04T15:50:31.004Z,2.10
2024-01-04T15:53:00.029Z,2.53
2024-01-04T15:55:28.295Z,2.40
2024-01-04T15:57:56.296Z,2.33
2024-01-04T16:00:24.793Z,2.67
2024-01-04T16:02:53.204Z,1.60
2024-01-04T16:05:22.817Z,1.67
2024-01-04T16:07:51.117Z,1.70
2024-01-04T16:10:19.217Z,1.60
2024-01-04T16:12:48.186Z,1.70
2024-01-04T16:15:17.076Z,1.57
2024-01-04T16:17:45.596Z,2.10
2024-01-04T16:20:22.731Z,2.20
2024-01-04T16:23:00.003Z,1.67
2024-01-04T16:25:27.946Z,1.43
2024-01-04T16:27:55.991Z,2.17
2024-01-04T16:30:24.057Z,1.27
2024-01-04T16:32:52.498Z,1.90
2024-01-04T16:35:21.152Z,1.77
2024-01-04T16:37:49.171Z,1.10
2024-01-04T16:40:19.744Z,3.10
2024-01-04T16:42:47.675Z,2.30
2024-01-04T16:45:16.251Z,2.70
2024-01-04T16:47:44.657Z,2.00
2024-01-04T16:50:13.885Z,1.70
2024-01-04T16:52:42.134Z,2.00
2024-01-04T16:55:10.729Z,1.60
2024-01-04T16:57:41.804Z,1.53
2024-01-04T17:00:10.707Z,1.80
2024-01-04T17:02:38.632Z,1.80
2024-01-04T17:05:07.375Z,1.70
2024-01-04T17:07:35.346Z,2.73
2024-01-04T17:10:03.508Z,2.40
2024-01-04T17:12:31.470Z,3.17
2024-01-04T17:15:00.990Z,3.00
2024-01-04T17:17:29.204Z,2.47
2024-01-04T17:19:57.353Z,2.77
2024-01-04T17:22:25.372Z,2.70
2024-01-04T17:24:53.362Z,2.70
2024-01-04T17:27:21.298Z,2.27
2024-01-04T17:29:49.280Z,2.47
2024-01-04T17:32:18.720Z,1.80
2024-01-04T17:34:46.767Z,1.97
2024-01-04T17:37:14.923Z,2.17
2024-01-04T17:39:42.866Z,2.43
2024-01-04T17:42:10.909Z,2.57
2024-01-04T17:44:38.838Z,2.63
2024-01-04T17:47:08.962Z,2.70
2024-01-04T17:49:41.208Z,2.67
2024-01-04T17:52:09.791Z,2.37
2024-01-04T17:54:38.988Z,2.40
2024-01-04T17:57:07.830Z,3.00
2024-01-04T17:59:35.873Z,2.63
2024-01-04T18:02:03.937Z,2.50
2024-01-04T18:04:31.869Z,2.83
2024-01-04T18:07:01.202Z,3.07
2024-01-04T18:09:29.259Z,2.87
2024-01-04T18:11:57.693Z,3.03
2024-01-04T18:14:25.720Z,3.40
2024-01-04T18:16:53.698Z,2.93
2024-01-04T18:19:21.768Z,2.80
2024-01-04T18:21:49.873Z,2.70
2024-01-04T18:24:21.945Z,2.17
2024-01-04T18:26:50.507Z,2.43
2024-01-04T18:29:18.913Z,2.57
2024-01-04T18:31:47.448Z,3.43
2024-01-04T18:34:17.181Z,2.83
2024-01-04T18:36:45.565Z,3.73
2024-01-04T18:39:14.648Z,3.63
2024-01-04T18:41:44.464Z,3.33
2024-01-04T18:44:12.538Z,3.63
2024-01-04T18:46:40.490Z,3.13
2024-01-04T18:49:09.072Z,3.53
2024-01-04T18:51:37.694Z,3.00
2024-01-04T18:54:05.986Z,3.10
2024-01-04T18:56:33.961Z,3.00
2024-01-04T18:59:03.430Z,3.00
2024-01-04T19:01:31.596Z,3.27
2024-01-04T19:03:59.769Z,2.90
2024-01-04T19:06:28.365Z,3.00
2024-01-04T19:08:56.625Z,3.27
2024-01-04T19:11:24.741Z,3.40
2024-01-04T19:13:53.867Z,4.10
2024-01-04T19:16:24.061Z,3.70
2024-01-04T19:18:52.905Z,3.40
2024-01-04T19:21:22.345Z,4.10
2024-01-04T19:23:50.378Z,3.40
2024-01-04T19:26:18.441Z,3.60
2024-01-04T19:28:46.509Z,4.00
2024-01-04T19:31:14.626Z,4.20
2024-01-04T19:33:44.267Z,4.10
2024-01-04T19:36:12.563Z,3.80
2024-01-04T19:38:40.498Z,3.83
2024-01-04T19:41:08.512Z,3.70
2024-01-04T19:43:36.449Z,3.70
2024-01-04T19:46:10.448Z,4.03
2024-01-04T19:48:39.650Z,3.50
2024-01-04T19:51:09.332Z,3.03
2024-01-04T19:53:37.284Z,3.70
2024-01-04T19:56:06.740Z,3.27
2024-01-04T19:58:36.729Z,3.70
2024-01-04T20:01:05.258Z,3.80
2024-01-04T20:03:33.305Z,3.47
2024-01-04T20:06:01.418Z,3.23
2024-01-04T20:08:30.702Z,3.37
2024-01-04T20:11:01.898Z,3.87
2024-01-04T20:13:30.638Z,3.70
2024-01-04T20:15:59.011Z,3.40
2024-01-04T20:18:27.405Z,3.47
2024-01-04T20:20:55.759Z,2.97
2024-01-04T20:23:24.256Z,3.50
2024-01-04T20:25:53.857Z,3.37
2024-01-04T20:28:22.136Z,3.70
2024-01-04T20:30:50.554Z,3.87
2024-01-04T20:33:18.992Z,3.67
2024-01-04T20:35:47.369Z,3.50
2024-01-04T20:38:15.739Z,3.57
2024-01-04T20:40:44.157Z,4.20
2024-01-04T20:43:13.667Z,3.67
2024-01-04T20:45:41.812Z,3.90
2024-01-04T20:48:10.777Z,4.50
2024-01-04T20:50:39.071Z,4.90
2024-01-04T20:53:07.804Z,5.10
2024-01-04T20:55:35.928Z,6.40
2024-01-04T20:58:04.150Z,6.40
2024-01-04T21:00:33.540Z,7.23
2024-01-04T21:03:01.649Z,7.00
2024-01-04T21:05:29.688Z,7.13
2024-01-04T21:07:57.692Z,6.67
2024-01-04T21:10:25.654Z,5.87
2024-01-04T21:12:53.713Z,6.20
2024-01-04T21:15:21.949Z,6.20
2024-01-04T21:17:51.374Z,5.73
2024-01-04T21:20:19.417Z,5.47
2024-01-04T21:22:48.552Z,5.53
2024-01-04T21:25:16.632Z,5.13
2024-01-04T21:27:44.600Z,4.90
2024-01-04T21:30:13.276Z,5.97
2024-01-04T21:32:42.879Z,5.10
2024-01-04T21:35:12.621Z,5.03
2024-01-04T21:37:40.650Z,4.67
2024-01-04T21:40:09.967Z,5.20
2024-01-04T21:42:37.910Z,5.10
2024-01-04T21:45:06.778Z,5.43
2024-01-04T21:47:34.999Z,5.23
2024-01-04T21:50:03.275Z,5.33
2024-01-04T21:52:32.649Z,5.27
2024-01-04T21:55:01.367Z,5.83
2024-01-04T21:57:29.988Z,5.97
2024-01-04T21:59:58.063Z,6.03
2024-01-04T22:02:26.095Z,6.40
2024-01-04T22:04:54.167Z,7.70
2024-01-04T22:07:22.359Z,5.87
2024-01-04T22:09:51.694Z,6.67
2024-01-04T22:12:19.796Z,6.90
2024-01-04T22:14:48.186Z,6.47
2024-01-04T22:17:16.146Z,6.97
2024-01-04T22:19:44.258Z,7.57
2024-01-04T22:22:12.398Z,6.90
2024-01-04T22:24:41.563Z,6.87
2024-01-04T22:27:11.133Z,7.77
2024-01-04T22:29:40.275Z,8.20
2024-01-04T22:32:09.293Z,7.03
2024-01-04T22:34:38.961Z,7.03
2024-01-04T22:37:07.112Z,7.70
2024-01-04T22:39:35.230Z,8.10
2024-01-04T22:42:03.757Z,8.40
2024-01-04T22:44:33.074Z,10.57
2024-01-04T22:47:01.014Z,8.47
2024-01-04T22:49:29.266Z,9.00
2024-01-04T22:51:57.287Z,10.60
2024-01-04T22:54:25.261Z,9.33
2024-01-04T22:56:53.305Z,9.60
2024-01-04T22:59:21.345Z,10.90
2024-01-04T23:01:50.632Z,10.00
2024-01-04T23:04:18.741Z,10.03
2024-01-04T23:06:47.101Z,9.77
2024-01-04T23:09:16.592Z,9.43
2024-01-04T23:11:44.656Z,8.57
2024-01-04T23:14:12.670Z,9.90
2024-01-04T23:16:40.986Z,9.30
2024-01-04T23:19:12.133Z,9.43
2024-01-04T23:21:41.257Z,9.67
2024-01-04T23:24:09.543Z,10.57
2024-01-04T23:26:42.310Z,9.77
2024-01-04T23:29:11.097Z,9.47
2024-01-04T23:31:39.277Z,10.77
2024-01-04T23:34:07.530Z,11.07
2024-01-04T23:36:36.910Z,9.70
2024-01-04T23:39:05.158Z,10.17
2024-01-04T23:41:36.003Z,10.30
2024-01-04T23:44:05.094Z,10.70
2024-01-04T23:46:33.001Z,11.13
2024-01-04T23:49:01.154Z,11.30
2024-01-04T23:51:29.737Z,10.70
2024-01-04T23:53:59.100Z,10.80
2024-01-04T23:56:27.195Z,11.80
2024-01-04T23:58:55.183Z,10.60
